YWLM/NTL METAR and TAF weather

Enter ICAO airport designator
Station Type Date Time Source
YWLM METAR 2019/02/23 01:00 UTC NOAA

YWLM 230100Z AUTO 14015KT 9999 -SHRA SCT031 SCT043 SCT054 23/18 Q1021


Station Type Date Time Source
YWLM Decoded METAR 2019/02/23 01:00 UTC NOAA

Station name not available
Feb 22, 2019 - 08:00 PM EST / 2019.02.23 0100 UTC
Wind: from the SE (140 degrees) at 17 MPH (15 KT):0
Visibility: greater than 7 mile(s):0
Sky conditions: partly cloudy
Weather: light rain showers
Temperature: 73 F (23 C)
Dew Point: 64 F (18 C)
Relative Humidity: 73%
Pressure (altimeter): 30.15 in. Hg (1021 hPa)
ob: YWLM 230100Z AUTO 14015KT 9999 -SHRA SCT031 SCT043 SCT054 23/18 Q1021
cycle: 1

Station Type Date Time Source
YWLM TAF 2019/02/22 23:42 UTC NOAA

TAF
AMD YWLM 222340Z 2223/2324 17014KT 9999 -SHRA BKN030
BECMG 2300/2302 17015G25KT 9999 -SHRA BKN035
FM230900 16013KT 9999 -SHRA FEW020 BKN030 INTER 2223/2324 5000 SHRA SCT015


Example: see airport list